sensor_id;sensor_type;location;lat;lon;timestamp;pressure;altitude;pressure_sealevel;temperature;humidity
75699;BME280;64313;51.018;13.742;2023-05-07T00:00:43;100097.44;;;11.07;75.82
75699;BME280;64313;51.018;13.742;2023-05-07T00:03:08;100099.47;;;11.05;75.46
75699;BME280;64313;51.018;13.742;2023-05-07T00:05:33;100098.66;;;11.04;75.94
75699;BME280;64313;51.018;13.742;2023-05-07T00:07:58;100092.50;;;11.11;75.17
75699;BME280;64313;51.018;13.742;2023-05-07T00:10:24;100104.63;;;11.07;76.04
75699;BME280;64313;51.018;13.742;2023-05-07T00:12:50;100099.91;;;11.09;75.03
75699;BME280;64313;51.018;13.742;2023-05-07T00:15:15;100105.88;;;11.11;76.24
75699;BME280;64313;51.018;13.742;2023-05-07T00:17:41;100109.44;;;11.18;74.36
75699;BME280;64313;51.018;13.742;2023-05-07T00:20:06;100102.69;;;11.22;76.12
75699;BME280;64313;51.018;13.742;2023-05-07T00:22:32;100105.13;;;11.17;74.62
75699;BME280;64313;51.018;13.742;2023-05-07T00:24:58;100106.78;;;11.18;74.61
75699;BME280;64313;51.018;13.742;2023-05-07T00:27:23;100103.28;;;11.17;75.39
75699;BME280;64313;51.018;13.742;2023-05-07T00:29:49;100103.28;;;11.17;75.69
75699;BME280;64313;51.018;13.742;2023-05-07T00:32:14;100105.31;;;11.15;76.35
75699;BME280;64313;51.018;13.742;2023-05-07T00:34:40;100100.53;;;11.11;76.75
75699;BME280;64313;51.018;13.742;2023-05-07T00:37:05;100100.53;;;11.11;75.20
75699;BME280;64313;51.018;13.742;2023-05-07T00:39:33;100105.06;;;11.10;76.18
75699;BME280;64313;51.018;13.742;2023-05-07T00:41:59;100112.84;;;11.05;76.30
75699;BME280;64313;51.018;13.742;2023-05-07T00:44:26;100106.81;;;10.96;76.58
75699;BME280;64313;51.018;13.742;2023-05-07T00:46:51;100108.47;;;10.97;76.18
75699;BME280;64313;51.018;13.742;2023-05-07T00:49:18;100106.41;;;10.99;76.32
75699;BME280;64313;51.018;13.742;2023-05-07T00:51:43;100101.81;;;10.93;77.77
75699;BME280;64313;51.018;13.742;2023-05-07T00:54:10;100104.50;;;10.93;77.10
75699;BME280;64313;51.018;13.742;2023-05-07T00:56:36;100105.09;;;10.89;77.65
75699;BME280;64313;51.018;13.742;2023-05-07T00:59:02;100100.09;;;10.86;77.34
75699;BME280;64313;51.018;13.742;2023-05-07T01:01:28;100097.06;;;10.89;77.36
75699;BME280;64313;51.018;13.742;2023-05-07T01:03:53;100101.56;;;10.88;77.30
75699;BME280;64313;51.018;13.742;2023-05-07T01:06:20;100093.13;;;10.85;77.24
75699;BME280;64313;51.018;13.742;2023-05-07T01:08:47;100103.16;;;10.82;77.34
75699;BME280;64313;51.018;13.742;2023-05-07T01:11:13;100105.59;;;10.77;77.36
75699;BME280;64313;51.018;13.742;2023-05-07T01:13:39;100110.75;;;10.79;78.11
75699;BME280;64313;51.018;13.742;2023-05-07T01:16:06;100114.44;;;10.78;77.08
75699;BME280;64313;51.018;13.742;2023-05-07T01:18:31;100111.41;;;10.81;77.03
75699;BME280;64313;51.018;13.742;2023-05-07T01:20:58;100111.75;;;10.78;77.05
75699;BME280;64313;51.018;13.742;2023-05-07T01:23:25;100109.28;;;10.76;77.65
75699;BME280;64313;51.018;13.742;2023-05-07T01:25:54;100108.13;;;10.86;76.12
75699;BME280;64313;51.018;13.742;2023-05-07T01:28:22;100110.38;;;10.82;77.35
75699;BME280;64313;51.018;13.742;2023-05-07T01:30:54;100123.28;;;10.78;77.28
75699;BME280;64313;51.018;13.742;2023-05-07T01:33:22;100119.22;;;10.82;76.92
75699;BME280;64313;51.018;13.742;2023-05-07T01:35:50;100122.28;;;10.79;76.38
75699;BME280;64313;51.018;13.742;2023-05-07T01:38:17;100123.22;;;10.72;76.61
75699;BME280;64313;51.018;13.742;2023-05-07T01:40:43;100115.84;;;10.74;76.21
75699;BME280;64313;51.018;13.742;2023-05-07T01:43:09;100117.50;;;10.75;76.04
75699;BME280;64313;51.018;13.742;2023-05-07T01:45:36;100121.00;;;10.75;75.80
75699;BME280;64313;51.018;13.742;2023-05-07T01:48:03;100119.53;;;10.73;75.45
75699;BME280;64313;51.018;13.742;2023-05-07T01:50:30;100125.25;;;10.70;75.51
75699;BME280;64313;51.018;13.742;2023-05-07T01:52:57;100118.06;;;10.70;75.42
75699;BME280;64313;51.018;13.742;2023-05-07T01:55:22;100125.25;;;10.70;75.21
75699;BME280;64313;51.018;13.742;2023-05-07T01:57:48;100124.22;;;10.71;75.05
75699;BME280;64313;51.018;13.742;2023-05-07T02:00:14;100127.53;;;10.73;75.00
75699;BME280;64313;51.018;13.742;2023-05-07T02:02:43;100133.09;;;10.71;75.22
75699;BME280;64313;51.018;13.742;2023-05-07T02:05:19;100124.88;;;10.73;74.72
75699;BME280;64313;51.018;13.742;2023-05-07T02:07:49;100111.31;;;10.74;74.65
75699;BME280;64313;51.018;13.742;2023-05-07T02:10:16;100106.81;;;10.75;75.00
75699;BME280;64313;51.018;13.742;2023-05-07T02:12:41;100116.03;;;10.72;74.81
75699;BME280;64313;51.018;13.742;2023-05-07T02:15:08;100116.84;;;10.73;74.47
75699;BME280;64313;51.018;13.742;2023-05-07T02:17:34;100126.56;;;10.74;74.15
75699;BME280;64313;51.018;13.742;2023-05-07T02:20:00;100119.53;;;10.73;74.29
75699;BME280;64313;51.018;13.742;2023-05-07T02:22:26;100123.41;;;10.70;74.61
75699;BME280;64313;51.018;13.742;2023-05-07T02:24:51;100129.31;;;10.66;73.64
75699;BME280;64313;51.018;13.742;2023-05-07T02:27:16;100139.19;;;10.65;74.92
75699;BME280;64313;51.018;13.742;2023-05-07T02:29:43;100128.06;;;10.61;74.60
75699;BME280;64313;51.018;13.742;2023-05-07T02:32:08;100135.63;;;10.58;74.99
75699;BME280;64313;51.018;13.742;2023-05-07T02:34:34;100137.09;;;10.60;74.98
75699;BME280;64313;51.018;13.742;2023-05-07T02:36:59;100137.09;;;10.60;75.23
75699;BME280;64313;51.018;13.742;2023-05-07T02:39:25;100135.44;;;10.59;75.29
75699;BME280;64313;51.018;13.742;2023-05-07T02:41:51;100135.44;;;10.59;75.64
75699;BME280;64313;51.018;13.742;2023-05-07T02:44:16;100141.81;;;10.58;75.32
75699;BME280;64313;51.018;13.742;2023-05-07T02:46:44;100128.44;;;10.58;74.96
75699;BME280;64313;51.018;13.742;2023-05-07T02:49:11;100135.44;;;10.59;75.10
75699;BME280;64313;51.018;13.742;2023-05-07T02:51:38;100127.41;;;10.59;74.91
75699;BME280;64313;51.018;13.742;2023-05-07T02:54:08;100127.16;;;10.54;74.56
75699;BME280;64313;51.018;13.742;2023-05-07T02:56:34;100136.22;;;10.53;74.81
75699;BME280;64313;51.018;13.742;2023-05-07T02:58:59;100131.22;;;10.50;75.20
75699;BME280;64313;51.018;13.742;2023-05-07T03:01:28;100141.63;;;10.45;74.85
75699;BME280;64313;51.018;13.742;2023-05-07T03:04:01;100138.69;;;10.40;75.24
75699;BME280;64313;51.018;13.742;2023-05-07T03:06:26;100135.75;;;10.35;76.08
75699;BME280;64313;51.018;13.742;2023-05-07T03:08:52;100131.72;;;10.24;75.91
75699;BME280;64313;51.018;13.742;2023-05-07T03:11:17;100134.19;;;10.26;75.69
75699;BME280;64313;51.018;13.742;2023-05-07T03:13:42;100125.53;;;10.24;76.19
75699;BME280;64313;51.018;13.742;2023-05-07T03:16:08;100123.53;;;10.26;76.18
75699;BME280;64313;51.018;13.742;2023-05-07T03:18:33;100130.88;;;10.24;76.00
75699;BME280;64313;51.018;13.742;2023-05-07T03:20:58;100136.22;;;10.24;76.07
75699;BME280;64313;51.018;13.742;2023-05-07T03:23:24;100138.25;;;10.22;76.53
75699;BME280;64313;51.018;13.742;2023-05-07T03:25:49;100139.84;;;10.16;76.62
75699;BME280;64313;51.018;13.742;2023-05-07T03:28:15;100137.81;;;10.18;75.93
75699;BME280;64313;51.018;13.742;2023-05-07T03:30:46;100142.13;;;10.19;76.03
75699;BME280;64313;51.018;13.742;2023-05-07T03:33:13;100142.56;;;10.23;75.77
75699;BME280;64313;51.018;13.742;2023-05-07T03:35:38;100143.97;;;10.18;76.26
75699;BME280;64313;51.018;13.742;2023-05-07T03:38:04;100145.34;;;10.14;75.83
75699;BME280;64313;51.018;13.742;2023-05-07T03:40:32;100146.94;;;10.09;76.39
75699;BME280;64313;51.018;13.742;2023-05-07T03:42:59;100155.38;;;10.12;76.21
75699;BME280;64313;51.018;13.742;2023-05-07T03:45:26;100152.06;;;10.10;76.75
75699;BME280;64313;51.018;13.742;2023-05-07T03:48:02;100156.59;;;10.10;76.68
75699;BME280;64313;51.018;13.742;2023-05-07T03:50:27;100148.56;;;10.10;76.77
75699;BME280;64313;51.018;13.742;2023-05-07T03:52:56;100154.56;;;10.12;76.41
75699;BME280;64313;51.018;13.742;2023-05-07T03:55:22;100155.38;;;10.12;76.54
75699;BME280;64313;51.018;13.742;2023-05-07T03:57:52;100154.13;;;10.08;76.61
75699;BME280;64313;51.018;13.742;2023-05-07T04:00:19;100158.25;;;10.11;76.38
75699;BME280;64313;51.018;13.742;2023-05-07T04:02:48;100158.44;;;10.09;76.92
75699;BME280;64313;51.018;13.742;2023-05-07T04:05:16;100153.91;;;10.10;77.01
75699;BME280;64313;51.018;13.742;2023-05-07T04:07:43;100162.56;;;10.12;76.74
75699;BME280;64313;51.018;13.742;2023-05-07T04:10:10;100160.38;;;10.15;76.35
75699;BME280;64313;51.018;13.742;2023-05-07T04:12:39;100152.97;;;10.17;76.54
75699;BME280;64313;51.018;13.742;2023-05-07T04:15:06;100152.16;;;10.17;76.37
75699;BME280;64313;51.018;13.742;2023-05-07T04:17:32;100164.88;;;10.15;76.26
75699;BME280;64313;51.018;13.742;2023-05-07T04:19:57;100158.53;;;10.16;76.37
75699;BME280;64313;51.018;13.742;2023-05-07T04:22:24;100160.38;;;10.15;76.40
75699;BME280;64313;51.018;13.742;2023-05-07T04:24:50;100163.88;;;10.16;76.58
75699;BME280;64313;51.018;13.742;2023-05-07T04:27:15;100163.66;;;10.17;76.40
75699;BME280;64313;51.018;13.742;2023-05-07T04:29:40;100169.88;;;10.18;76.61
75699;BME280;64313;51.018;13.742;2023-05-07T04:32:10;100167.19;;;10.18;76.72
75699;BME280;64313;51.018;13.742;2023-05-07T04:34:38;100176.03;;;10.18;76.35
75699;BME280;64313;51.018;13.742;2023-05-07T04:37:03;100177.03;;;10.17;76.85
75699;BME280;64313;51.018;13.742;2023-05-07T04:39:29;100187.09;;;10.15;76.77
75699;BME280;64313;51.018;13.742;2023-05-07T04:41:55;100191.13;;;10.11;76.90
75699;BME280;64313;51.018;13.742;2023-05-07T04:44:21;100195.66;;;10.11;76.84
75699;BME280;64313;51.018;13.742;2023-05-07T04:46:47;100191.31;;;10.10;77.02
75699;BME280;64313;51.018;13.742;2023-05-07T04:49:13;100198.31;;;10.11;76.45
75699;BME280;64313;51.018;13.742;2023-05-07T04:51:38;100194.81;;;10.10;76.44
75699;BME280;64313;51.018;13.742;2023-05-07T04:54:04;100204.88;;;10.08;76.50
75699;BME280;64313;51.018;13.742;2023-05-07T04:56:30;100204.38;;;10.05;76.42
75699;BME280;64313;51.018;13.742;2023-05-07T04:58:57;100208.53;;;10.07;76.38
75699;BME280;64313;51.018;13.742;2023-05-07T05:01:23;100205.59;;;10.02;76.81
75699;BME280;64313;51.018;13.742;2023-05-07T05:03:48;100210.56;;;10.05;77.34
75699;BME280;64313;51.018;13.742;2023-05-07T05:06:14;100206.88;;;10.06;76.35
75699;BME280;64313;51.018;13.742;2023-05-07T05:08:40;100208.72;;;10.06;76.70
75699;BME280;64313;51.018;13.742;2023-05-07T05:11:05;100207.06;;;10.05;76.71
75699;BME280;64313;51.018;13.742;2023-05-07T05:13:33;100206.69;;;10.08;76.25
75699;BME280;64313;51.018;13.742;2023-05-07T05:16:01;100205.22;;;10.05;76.79
75699;BME280;64313;51.018;13.742;2023-05-07T05:18:28;100199.03;;;10.05;76.30
75699;BME280;64313;51.018;13.742;2023-05-07T05:20:54;100201.16;;;10.09;76.32
75699;BME280;64313;51.018;13.742;2023-05-07T05:23:20;100206.50;;;10.09;76.69
75699;BME280;64313;51.018;13.742;2023-05-07T05:25:46;100208.16;;;10.10;76.21
75699;BME280;64313;51.018;13.742;2023-05-07T05:28:13;100212.50;;;10.11;75.85
75699;BME280;64313;51.018;13.742;2023-05-07T05:30:39;100214.34;;;10.11;75.93
75699;BME280;64313;51.018;13.742;2023-05-07T05:33:04;100221.34;;;10.12;76.09
75699;BME280;64313;51.018;13.742;2023-05-07T05:35:30;100220.13;;;10.14;75.98
75699;BME280;64313;51.018;13.742;2023-05-07T05:37:56;100231.66;;;10.15;75.94
75699;BME280;64313;51.018;13.742;2023-05-07T05:40:22;100229.84;;;10.15;75.45
75699;BME280;64313;51.018;13.742;2023-05-07T05:42:47;100232.03;;;10.12;75.69
75699;BME280;64313;51.018;13.742;2023-05-07T05:45:15;100227.88;;;10.09;75.48
75699;BME280;64313;51.018;13.742;2023-05-07T05:47:41;100236.72;;;10.10;75.60
75699;BME280;64313;51.018;13.742;2023-05-07T05:50:06;100240.03;;;10.12;75.56
75699;BME280;64313;51.018;13.742;2023-05-07T05:52:32;100240.03;;;10.12;75.58
75699;BME280;64313;51.018;13.742;2023-05-07T05:54:57;100243.53;;;10.12;75.33
75699;BME280;64313;51.018;13.742;2023-05-07T05:57:24;100247.22;;;10.11;75.08
75699;BME280;64313;51.018;13.742;2023-05-07T05:59:50;100250.00;;;10.03;75.46
75699;BME280;64313;51.018;13.742;2023-05-07T06:02:15;100252.38;;;9.98;75.61
75699;BME280;64313;51.018;13.742;2023-05-07T06:04:41;100253.38;;;9.97;75.31
75699;BME280;64313;51.018;13.742;2023-05-07T06:07:08;100254.41;;;9.96;75.67
75699;BME280;64313;51.018;13.742;2023-05-07T06:09:34;100262.41;;;9.96;75.30
75699;BME280;64313;51.018;13.742;2023-05-07T06:12:00;100269.41;;;9.97;75.00
75699;BME280;64313;51.018;13.742;2023-05-07T06:14:25;100268.56;;;9.96;74.93
75699;BME280;64313;51.018;13.742;2023-05-07T06:16:51;100267.75;;;9.96;75.23
75699;BME280;64313;51.018;13.742;2023-05-07T06:19:16;100273.25;;;9.94;75.06
75699;BME280;64313;51.018;13.742;2023-05-07T06:21:43;100273.78;;;9.90;75.33
75699;BME280;64313;51.018;13.742;2023-05-07T06:24:09;100277.50;;;9.89;75.24
75699;BME280;64313;51.018;13.742;2023-05-07T06:26:37;100277.13;;;9.92;75.46
75699;BME280;64313;51.018;13.742;2023-05-07T06:29:02;100284.16;;;9.93;75.33
75699;BME280;64313;51.018;13.742;2023-05-07T06:31:30;100285.41;;;9.97;74.79
75699;BME280;64313;51.018;13.742;2023-05-07T06:34:02;100270.06;;;9.99;75.01
75699;BME280;64313;51.018;13.742;2023-05-07T06:36:32;100275.03;;;10.02;74.77
75699;BME280;64313;51.018;13.742;2023-05-07T06:39:01;100270.34;;;10.04;74.48
75699;BME280;64313;51.018;13.742;2023-05-07T06:41:27;100278.78;;;10.08;74.49
75699;BME280;64313;51.018;13.742;2023-05-07T06:43:54;100272.19;;;10.04;73.80
75699;BME280;64313;51.018;13.742;2023-05-07T06:46:28;100278.34;;;10.04;73.91
75699;BME280;64313;51.018;13.742;2023-05-07T06:48:54;100297.03;;;10.04;74.03
75699;BME280;64313;51.018;13.742;2023-05-07T06:51:20;100304.41;;;10.02;73.67
75699;BME280;64313;51.018;13.742;2023-05-07T06:53:45;100297.41;;;10.01;74.12
75699;BME280;64313;51.018;13.742;2023-05-07T06:56:11;100292.06;;;10.01;74.13
75699;BME280;64313;51.018;13.742;2023-05-07T06:58:38;100290.06;;;10.03;74.00
75699;BME280;64313;51.018;13.742;2023-05-07T07:01:04;100297.03;;;10.04;73.79
75699;BME280;64313;51.018;13.742;2023-05-07T07:03:31;100301.72;;;10.02;73.81
75699;BME280;64313;51.018;13.742;2023-05-07T07:05:56;100298.53;;;10.07;73.76
75699;BME280;64313;51.018;13.742;2023-05-07T07:08:23;100297.16;;;10.11;73.49
75699;BME280;64313;51.018;13.742;2023-05-07T07:10:49;100285.63;;;10.10;73.28
75699;BME280;64313;51.018;13.742;2023-05-07T07:13:14;100288.50;;;10.09;73.39
75699;BME280;64313;51.018;13.742;2023-05-07T07:15:40;100291.16;;;10.09;73.63
75699;BME280;64313;51.018;13.742;2023-05-07T07:18:06;100288.28;;;10.10;74.08
75699;BME280;64313;51.018;13.742;2023-05-07T07:20:31;100291.63;;;10.12;73.44
75699;BME280;64313;51.018;13.742;2023-05-07T07:22:57;100302.31;;;10.12;74.14
75699;BME280;64313;51.018;13.742;2023-05-07T07:25:22;100303.31;;;10.11;73.91
75699;BME280;64313;51.018;13.742;2023-05-07T07:27:49;100299.63;;;10.12;73.91
75699;BME280;64313;51.018;13.742;2023-05-07T07:30:15;100301.47;;;10.12;73.66
75699;BME280;64313;51.018;13.742;2023-05-07T07:32:44;100306.81;;;10.12;73.52
75699;BME280;64313;51.018;13.742;2023-05-07T07:35:10;100308.66;;;10.11;73.66
75699;BME280;64313;51.018;13.742;2023-05-07T07:37:36;100314.66;;;10.13;73.58
75699;BME280;64313;51.018;13.742;2023-05-07T07:40:02;100318.41;;;10.04;73.95
75699;BME280;64313;51.018;13.742;2023-05-07T07:42:31;100314.09;;;10.03;73.88
75699;BME280;64313;51.018;13.742;2023-05-07T07:44:57;100310.56;;;10.03;73.75
75699;BME280;64313;51.018;13.742;2023-05-07T07:47:29;100307.06;;;10.02;73.64
75699;BME280;64313;51.018;13.742;2023-05-07T07:49:54;100311.41;;;10.03;73.82
75699;BME280;64313;51.018;13.742;2023-05-07T07:52:20;100319.72;;;10.08;73.89
75699;BME280;64313;51.018;13.742;2023-05-07T07:54:54;100318.03;;;10.07;73.53
75699;BME280;64313;51.018;13.742;2023-05-07T07:57:20;100317.88;;;10.09;73.64
75699;BME280;64313;51.018;13.742;2023-05-07T07:59:46;100319.34;;;10.11;73.11
75699;BME280;64313;51.018;13.742;2023-05-07T08:02:13;100319.16;;;10.13;72.93
75699;BME280;64313;51.018;13.742;2023-05-07T08:04:39;100324.31;;;10.14;72.79
75699;BME280;64313;51.018;13.742;2023-05-07T08:07:06;100324.97;;;10.16;72.77
75699;BME280;64313;51.018;13.742;2023-05-07T08:09:34;100331.63;;;10.21;72.67
75699;BME280;64313;51.018;13.742;2023-05-07T08:12:02;100324.06;;;10.24;72.44
75699;BME280;64313;51.018;13.742;2023-05-07T08:14:30;100322.53;;;10.30;73.41
75699;BME280;64313;51.018;13.742;2023-05-07T08:16:56;100331.72;;;10.27;72.05
75699;BME280;64313;51.018;13.742;2023-05-07T08:19:22;100333.56;;;10.27;72.46
75699;BME280;64313;51.018;13.742;2023-05-07T08:21:48;100338.91;;;10.27;72.42
75699;BME280;64313;51.018;13.742;2023-05-07T08:24:15;100335.91;;;10.30;72.47
75699;BME280;64313;51.018;13.742;2023-05-07T08:26:40;100330.56;;;10.30;72.12
75699;BME280;64313;51.018;13.742;2023-05-07T08:29:07;100338.84;;;10.35;72.47
75699;BME280;64313;51.018;13.742;2023-05-07T08:31:33;100344.03;;;10.36;72.15
75699;BME280;64313;51.018;13.742;2023-05-07T08:33:59;100334.97;;;10.37;72.07
75699;BME280;64313;51.018;13.742;2023-05-07T08:36:27;100339.66;;;10.35;72.09
75699;BME280;64313;51.018;13.742;2023-05-07T08:38:54;100336.84;;;10.37;72.08
75699;BME280;64313;51.018;13.742;2023-05-07T08:41:20;100334.97;;;10.37;71.96
75699;BME280;64313;51.018;13.742;2023-05-07T08:43:48;100337.28;;;10.40;71.86
75699;BME280;64313;51.018;13.742;2023-05-07T08:46:21;100337.94;;;10.43;71.78
75699;BME280;64313;51.018;13.742;2023-05-07T08:48:47;100339.41;;;10.45;71.69
75699;BME280;64313;51.018;13.742;2023-05-07T08:51:19;100341.09;;;10.46;71.76
75699;BME280;64313;51.018;13.742;2023-05-07T08:53:47;100347.72;;;10.50;71.68
75699;BME280;64313;51.018;13.742;2023-05-07T08:56:20;100351.25;;;10.51;71.68
75699;BME280;64313;51.018;13.742;2023-05-07T08:58:47;100355.19;;;10.55;71.61
75699;BME280;64313;51.018;13.742;2023-05-07T09:01:14;100356.28;;;10.60;71.55
75699;BME280;64313;51.018;13.742;2023-05-07T09:03:41;100354.09;;;10.64;71.41
75699;BME280;64313;51.018;13.742;2023-05-07T09:06:08;100354.09;;;10.64;71.10
75699;BME280;64313;51.018;13.742;2023-05-07T09:08:35;100355.94;;;10.64;70.96
75699;BME280;64313;51.018;13.742;2023-05-07T09:11:02;100368.28;;;10.65;71.23
75699;BME280;64313;51.018;13.742;2023-05-07T09:13:29;100363.97;;;10.64;71.52
75699;BME280;64313;51.018;13.742;2023-05-07T09:15:55;100365.78;;;10.63;71.14
75699;BME280;64313;51.018;13.742;2023-05-07T09:18:24;100362.94;;;10.65;71.12
75699;BME280;64313;51.018;13.742;2023-05-07T09:20:49;100364.78;;;10.64;71.17
75699;BME280;64313;51.018;13.742;2023-05-07T09:23:18;100363.75;;;10.65;71.27
75699;BME280;64313;51.018;13.742;2023-05-07T09:25:43;100369.94;;;10.66;71.45
75699;BME280;64313;51.018;13.742;2023-05-07T09:28:15;100367.91;;;10.68;71.45
75699;BME280;64313;51.018;13.742;2023-05-07T09:30:40;100368.41;;;10.71;71.28
75699;BME280;64313;51.018;13.742;2023-05-07T09:33:08;100369.50;;;10.77;71.17
75699;BME280;64313;51.018;13.742;2023-05-07T09:35:37;100372.16;;;10.77;70.77
75699;BME280;64313;51.018;13.742;2023-05-07T09:38:07;100370.50;;;10.76;70.99
75699;BME280;64313;51.018;13.742;2023-05-07T09:40:37;100378.16;;;10.79;70.95
75699;BME280;64313;51.018;13.742;2023-05-07T09:43:13;100368.13;;;10.81;70.48
75699;BME280;64313;51.018;13.742;2023-05-07T09:45:48;100372.28;;;10.83;70.92
75699;BME280;64313;51.018;13.742;2023-05-07T09:48:18;100371.53;;;10.90;70.96
75699;BME280;64313;51.018;13.742;2023-05-07T09:50:49;100377.31;;;10.93;70.63
75699;BME280;64313;51.018;13.742;2023-05-07T09:53:19;100378.16;;;10.94;70.46
75699;BME280;64313;51.018;13.742;2023-05-07T09:55:45;100379.66;;;10.96;70.54
75699;BME280;64313;51.018;13.742;2023-05-07T09:58:12;100375.56;;;11.00;69.68
75699;BME280;64313;51.018;13.742;2023-05-07T10:00:39;100367.16;;;11.03;69.69
75699;BME280;64313;51.018;13.742;2023-05-07T10:03:09;100368.63;;;11.06;68.48
75699;BME280;64313;51.018;13.742;2023-05-07T10:05:43;100372.78;;;11.09;68.38
75699;BME280;64313;51.018;13.742;2023-05-07T10:08:10;100368.91;;;11.11;68.80
75699;BME280;64313;51.018;13.742;2023-05-07T10:10:37;100373.09;;;11.14;68.87
75699;BME280;64313;51.018;13.742;2023-05-07T10:13:06;100370.19;;;11.15;68.94
75699;BME280;64313;51.018;13.742;2023-05-07T10:15:36;100371.50;;;11.19;68.21
75699;BME280;64313;51.018;13.742;2023-05-07T10:18:03;100376.84;;;11.19;68.40
75699;BME280;64313;51.018;13.742;2023-05-07T10:20:29;100372.97;;;11.22;68.20
75699;BME280;64313;51.018;13.742;2023-05-07T10:22:57;100378.97;;;11.24;68.11
75699;BME280;64313;51.018;13.742;2023-05-07T10:25:31;100375.25;;;11.25;68.19
75699;BME280;64313;51.018;13.742;2023-05-07T10:28:06;100378.97;;;11.24;68.01
75699;BME280;64313;51.018;13.742;2023-05-07T10:30:46;100373.78;;;11.22;68.17
75699;BME280;64313;51.018;13.742;2023-05-07T10:33:17;100374.44;;;11.24;68.58
75699;BME280;64313;51.018;13.742;2023-05-07T10:35:46;100377.13;;;11.24;68.47
75699;BME280;64313;51.018;13.742;2023-05-07T10:38:14;100372.59;;;11.25;68.58
75699;BME280;64313;51.018;13.742;2023-05-07T10:40:42;100370.75;;;11.25;68.23
75699;BME280;64313;51.018;13.742;2023-05-07T10:43:10;100374.22;;;11.26;68.23
75699;BME280;64313;51.018;13.742;2023-05-07T10:45:41;100376.56;;;11.29;67.94
75699;BME280;64313;51.018;13.742;2023-05-07T10:48:15;100361.72;;;11.26;68.21
75699;BME280;64313;51.018;13.742;2023-05-07T10:50:44;100367.69;;;11.29;68.10
75699;BME280;64313;51.018;13.742;2023-05-07T10:55:50;100364.25;;;11.35;67.78
75699;BME280;64313;51.018;13.742;2023-05-07T11:00:49;100364.53;;;11.40;67.63
75699;BME280;64313;51.018;13.742;2023-05-07T11:03:25;100360.81;;;11.41;67.55
75699;BME280;64313;51.018;13.742;2023-05-07T11:06:15;100372.34;;;11.41;67.25
75699;BME280;64313;51.018;13.742;2023-05-07T11:08:57;100373.00;;;11.43;67.21
75699;BME280;64313;51.018;13.742;2023-05-07T11:11:50;100375.03;;;11.41;67.17
75699;BME280;64313;51.018;13.742;2023-05-07T11:17:09;100366.81;;;11.43;67.15
75699;BME280;64313;51.018;13.742;2023-05-07T11:19:52;100372.00;;;11.44;67.40
75699;BME280;64313;51.018;13.742;2023-05-07T11:25:21;100362.56;;;11.48;67.17
75699;BME280;64313;51.018;13.742;2023-05-07T11:27:54;100360.53;;;11.51;67.22
75699;BME280;64313;51.018;13.742;2023-05-07T11:30:20;100366.53;;;11.53;67.26
75699;BME280;64313;51.018;13.742;2023-05-07T11:32:47;100359.13;;;11.55;67.09
75699;BME280;64313;51.018;13.742;2023-05-07T11:35:15;100363.06;;;11.59;67.71
75699;BME280;64313;51.018;13.742;2023-05-07T11:37:42;100360.88;;;11.62;67.16
75699;BME280;64313;51.018;13.742;2023-05-07T11:40:09;100365.19;;;11.63;67.30
75699;BME280;64313;51.018;13.742;2023-05-07T11:42:37;100357.63;;;11.67;66.91
75699;BME280;64313;51.018;13.742;2023-05-07T11:45:03;100353.53;;;11.71;66.82
75699;BME280;64313;51.018;13.742;2023-05-07T11:47:30;100355.63;;;11.76;66.81
75699;BME280;64313;51.018;13.742;2023-05-07T11:49:56;100360.25;;;11.82;66.43
75699;BME280;64313;51.018;13.742;2023-05-07T11:52:23;100365.59;;;11.82;67.16
75699;BME280;64313;51.018;13.742;2023-05-07T11:54:50;100360.69;;;11.85;66.70
75699;BME280;64313;51.018;13.742;2023-05-07T11:57:16;100358.69;;;11.87;66.48
75699;BME280;64313;51.018;13.742;2023-05-07T11:59:41;100363.00;;;11.88;66.65
75699;BME280;64313;51.018;13.742;2023-05-07T12:02:10;100361.59;;;11.93;66.70
75699;BME280;64313;51.018;13.742;2023-05-07T12:04:35;100370.28;;;11.95;66.59
75699;BME280;64313;51.018;13.742;2023-05-07T12:07:01;100373.41;;;11.98;66.73
75699;BME280;64313;51.018;13.742;2023-05-07T12:09:26;100363.75;;;12.04;67.30
75699;BME280;64313;51.018;13.742;2023-05-07T12:11:52;100366.03;;;12.07;68.32
75699;BME280;64313;51.018;13.742;2023-05-07T12:14:17;100363.00;;;12.10;66.91
75699;BME280;64313;51.018;13.742;2023-05-07T12:16:44;100358.88;;;12.14;66.80
75699;BME280;64313;51.018;13.742;2023-05-07T12:19:10;100366.34;;;12.19;67.05
75699;BME280;64313;51.018;13.742;2023-05-07T12:21:38;100365.78;;;12.23;67.29
75699;BME280;64313;51.018;13.742;2023-05-07T12:24:04;100366.41;;;12.25;66.40
75699;BME280;64313;51.018;13.742;2023-05-07T12:26:30;100374.25;;;12.27;66.39
75699;BME280;64313;51.018;13.742;2023-05-07T12:28:57;100382.09;;;12.28;66.25
75699;BME280;64313;51.018;13.742;2023-05-07T12:31:22;100380.47;;;12.27;66.47
75699;BME280;64313;51.018;13.742;2023-05-07T12:33:48;100376.75;;;12.28;66.34
75699;BME280;64313;51.018;13.742;2023-05-07T12:36:13;100379.44;;;12.28;66.03
75699;BME280;64313;51.018;13.742;2023-05-07T12:38:39;100387.47;;;12.28;66.50
75699;BME280;64313;51.018;13.742;2023-05-07T12:41:07;100383.75;;;12.29;66.31
75699;BME280;64313;51.018;13.742;2023-05-07T12:43:32;100381.94;;;12.30;65.98
75699;BME280;64313;51.018;13.742;2023-05-07T12:46:03;100380.88;;;12.31;66.28
75699;BME280;64313;51.018;13.742;2023-05-07T12:48:29;100378.03;;;12.32;66.56
75699;BME280;64313;51.018;13.742;2023-05-07T12:50:56;100377.63;;;12.36;66.46